Terminal Aerodrome Forecast
Issued by NWS

Home | Current Version | Previous Version | Text Only | Print | Product List | Glossary On
Versions: 1 2 3 4 5 6 7 8 9 10 11 12 13 14 15 16
000
FTUS43 KBIS 101100
TAFJMS
TAF
KJMS 101130Z 1012/1112 13006KT P6SM SKC
     FM101500 17012KT P6SM SCT060
     FM110200 16006KT P6SM SCT120=

USA.gov is the U.S. government's official web portal to all federal, state and local government web resources and services.